Aeroporto :
LOGIN :

Iscrizione | Disclaimer

   EN    FR    IT 

 










Sommario :    VFR   VFR Marginale   IFR   IFR Intensivo   IFR Molto Intensivo
Visibilità : 
Base nubi : 
>= 8 km
>= 3000ft
5 / 8 km
1000 / 3000 ft
1500m / 5 km
500 / 1000 ft
800 / 1500m
200 / 500 ft
< 800m
< 200 ft
Simboli :   Temporali  Nebbia  Neve Forte  Precipitazioni Forti  Vento > 20 kt
SIGMETs :   Varie  Temporali  Ghiacco  Turbolenza  Onda orograficha  Ceneri Vulcaniche






- Altitudine del aeroporto : 36 ft
- Codice IATA : LTQ


LFAT - Le Touquet

ULTIMO METAR :
  • 291330Z AUTO 27017G30KT 230V290 9999 BKN037 OVC130 09/02 Q0990 TEMPO 24030G55KT 1200 TSRAGS BKN030CB

METARs OBSOLETI :
  • 291300Z AUTO 26015G28KT 230V300 9999 FEW028 BKN036 BKN049 09/03 Q0989 TEMPO 24030G55KT 1200 TSRAGS BKN030CB
  • 291230Z AUTO 26016KT 230V310 9999 FEW023/// SCT048/// BKN056/// ///TCU 08/04 Q0989 TEMPO 24030G55KT 1200 TSRAGS BKN030CB
  • 291200Z AUTO 25012G26KT 220V310 9999 FEW025/// BKN033/// BKN056/// ///TCU 08/04 Q0989 TEMPO 24030G55KT 3000 SHRA BKN030CB
  • 291130Z AUTO 28012KT 250V310 9999 SCT021/// SCT030/// BKN040/// ///TCU 07/04 Q0988 TEMPO 24030G55KT 3000 SHRA BKN030CB
  • 291100Z AUTO 27015KT 240V310 9999 -RA FEW015 BKN023 BKN032 08/05 Q0987 BECMG 26020G40KT

TAF TAF LFAT
Valido dal 29 a 12 ore il 29 a 21 ore UTC


291100Z 2912/2921 26020G35KT 9999 SCT030
TEMPO 2913/2921 24030G55KT 3000 SHRA BKN030CB
PROB40
TEMPO 2914/2917 1200 TSRAGS
ATIS : +33 3 21 06 62 84



MetMap, La meteo Aeronautica in un colpo d'occhio ! - Copyright ORBIFLY Dicembre 2007 - Disclaimer

ORBIFLY MET'MAP TEAM :

Programmazione e sviluppo : Alexandra Zaïnal
Concezione : Baudouin d'Aumeries
Aiuto per la programmazione : Marc-Olivier Méhu
Supporto tecnico e logistico : Manuel Goepfert
Aiuto per la traduzione : Arnaldo La Scala

Contatto : metmap@orbifly.com




FONTI E CREDITI :

   NOAA